Time;durP1;ratioP1;P1;durP2;ratioP2;P2;SDS_P1;SDS_P2;PMS_P1;PMS_P2;Temp;Humidity;BMP_temperature;BMP_pressure;BME280_temperature;BME280_humidity;BME280_pressure;Samples;Min_cycle;Max_cycle;Signal;HPM_P1;HPM_P2
2022/11/16 00:00:24;;;;;;;5.63;3.37;;;;;;;;;;4890241;28;20443;-56
2022/11/16 00:02:50;;;;;;;5.33;3.20;;;;;;;;;;4962240;28;20486;-54
2022/11/16 00:05:19;;;;;;;4.40;2.83;;;;;;;;;;4941982;28;20446;-55
2022/11/16 00:07:45;;;;;;;4.43;2.80;;;;;;;;;;4965246;28;20442;-55
2022/11/16 00:10:11;;;;;;;3.40;3.10;;;;;;;;;;4937475;28;20448;-56
2022/11/16 00:12:38;;;;;;;3.80;3.03;;;;;;;;;;4958032;28;20544;-55
2022/11/16 00:15:04;;;;;;;4.13;3.70;;;;;;;;;;4964634;28;20436;-56
2022/11/16 00:17:30;;;;;;;4.90;3.47;;;;;;;;;;4959670;28;20454;-56
2022/11/16 00:19:56;;;;;;;4.40;3.00;;;;;;;;;;4952436;28;20457;-55
2022/11/16 00:22:22;;;;;;;3.67;3.37;;;;;;;;;;4950502;28;20651;-55
2022/11/16 00:24:48;;;;;;;4.30;2.67;;;;;;;;;;4954580;28;20632;-56
2022/11/16 00:27:14;;;;;;;3.70;2.80;;;;;;;;;;4948468;28;20966;-56
2022/11/16 00:29:40;;;;;;;6.53;3.23;;;;;;;;;;4953036;28;20429;-56
2022/11/16 00:32:06;;;;;;;6.90;2.63;;;;;;;;;;4930868;28;20450;-56
2022/11/16 00:34:32;;;;;;;5.13;3.40;;;;;;;;;;4938039;28;20449;-55
2022/11/16 00:36:58;;;;;;;5.10;2.50;;;;;;;;;;4964536;28;20442;-54
2022/11/16 00:39:24;;;;;;;3.63;3.10;;;;;;;;;;4958761;28;20440;-55
2022/11/16 00:41:50;;;;;;;4.37;3.10;;;;;;;;;;4959078;28;20442;-55
2022/11/16 00:44:17;;;;;;;3.17;2.47;;;;;;;;;;4937447;28;20449;-55
2022/11/16 00:46:43;;;;;;;7.30;2.80;;;;;;;;;;4959865;28;20784;-54
2022/11/16 00:49:09;;;;;;;5.87;2.93;;;;;;;;;;4931704;28;20454;-54
2022/11/16 00:51:35;;;;;;;4.17;2.93;;;;;;;;;;4961681;28;21233;-54
2022/11/16 00:54:01;;;;;;;4.70;2.93;;;;;;;;;;4936161;28;20889;-55
2022/11/16 00:56:27;;;;;;;3.83;2.87;;;;;;;;;;4959270;28;20522;-55
2022/11/16 00:58:53;;;;;;;4.80;3.10;;;;;;;;;;4951884;28;20442;-57
2022/11/16 01:01:19;;;;;;;3.47;2.83;;;;;;;;;;4959916;28;20525;-56
2022/11/16 01:03:46;;;;;;;4.00;3.60;;;;;;;;;;4923586;28;21497;-57
2022/11/16 01:06:12;;;;;;;4.93;3.60;;;;;;;;;;4963968;28;20422;-54
2022/11/16 01:08:38;;;;;;;5.67;3.50;;;;;;;;;;4958900;28;20462;-55
2022/11/16 01:13:50;;;;;;;4.83;2.90;;;;;;;;;;4932063;28;20608;-55
2022/11/16 01:16:16;;;;;;;3.80;2.70;;;;;;;;;;4959760;28;20517;-53
2022/11/16 01:18:42;;;;;;;5.60;2.97;;;;;;;;;;4956668;28;21041;-55
2022/11/16 01:21:08;;;;;;;3.50;3.13;;;;;;;;;;4954823;28;20439;-55
2022/11/16 01:23:34;;;;;;;4.30;3.10;;;;;;;;;;4935097;28;20852;-55
2022/11/16 01:26:00;;;;;;;9.53;4.47;;;;;;;;;;4962442;28;20434;-57
2022/11/16 01:28:27;;;;;;;5.97;4.03;;;;;;;;;;4952989;28;20430;-57
2022/11/16 01:30:53;;;;;;;7.40;3.70;;;;;;;;;;4935235;28;20434;-58
2022/11/16 01:33:19;;;;;;;4.30;3.37;;;;;;;;;;4957469;28;20560;-57
2022/11/16 01:35:45;;;;;;;11.23;4.13;;;;;;;;;;4918905;28;20469;-57
2022/11/16 01:38:11;;;;;;;4.63;3.63;;;;;;;;;;4963001;28;20453;-57
2022/11/16 01:40:37;;;;;;;4.00;3.20;;;;;;;;;;4954271;28;20183;-57
2022/11/16 01:43:03;;;;;;;5.90;3.93;;;;;;;;;;4965219;28;20485;-57
2022/11/16 01:45:39;;;;;;;5.40;3.43;;;;;;;;;;4936698;28;20516;-57
2022/11/16 01:48:05;;;;;;;4.57;3.83;;;;;;;;;;4970026;28;20760;-57
2022/11/16 01:50:31;;;;;;;5.47;4.03;;;;;;;;;;4960334;28;20469;-57
2022/11/16 01:52:59;;;;;;;5.77;4.20;;;;;;;;;;4959807;28;21087;-57
2022/11/16 01:55:25;;;;;;;8.70;4.17;;;;;;;;;;4941881;28;20962;-56
2022/11/16 01:57:51;;;;;;;6.73;4.30;;;;;;;;;;4954063;28;20440;-57
2022/11/16 02:00:17;;;;;;;4.90;3.93;;;;;;;;;;4958903;28;20434;-56
2022/11/16 02:02:43;;;;;;;4.60;3.60;;;;;;;;;;4965509;28;20959;-56
2022/11/16 02:05:09;;;;;;;4.03;3.63;;;;;;;;;;4943366;28;20530;-56
2022/11/16 02:10:52;;;;;;;4.60;3.70;;;;;;;;;;4917738;28;20583;-57
2022/11/16 02:13:28;;;;;;;5.10;3.20;;;;;;;;;;4954198;28;20465;-57
2022/11/16 02:16:04;;;;;;;4.40;2.90;;;;;;;;;;4883518;28;1075151;-57
2022/11/16 02:18:33;;;;;;;3.70;2.90;;;;;;;;;;4945506;28;20258;-56
2022/11/16 02:21:02;;;;;;;7.83;3.80;;;;;;;;;;4955322;28;20426;-56
2022/11/16 02:23:47;;;;;;;5.00;3.10;;;;;;;;;;4964267;28;20474;-56
2022/11/16 02:26:17;;;;;;;3.27;2.70;;;;;;;;;;4935006;28;20457;-58
2022/11/16 02:28:46;;;;;;;6.77;2.97;;;;;;;;;;4949197;28;20454;-56
2022/11/16 02:31:13;;;;;;;5.63;2.67;;;;;;;;;;4967439;28;20438;-57
2022/11/16 02:33:39;;;;;;;8.13;2.83;;;;;;;;;;4967984;28;20461;-56
2022/11/16 02:36:06;;;;;;;3.30;2.60;;;;;;;;;;4926249;28;20446;-55
2022/11/16 02:38:33;;;;;;;3.47;2.10;;;;;;;;;;4962298;28;20472;-56
2022/11/16 02:41:04;;;;;;;3.60;2.90;;;;;;;;;;4905307;28;20553;-56
2022/11/16 02:43:31;;;;;;;7.07;3.40;;;;;;;;;;4953328;28;20493;-56
2022/11/16 02:45:58;;;;;;;3.30;2.53;;;;;;;;;;4934344;28;21262;-56
2022/11/16 02:48:25;;;;;;;5.77;3.40;;;;;;;;;;4950284;28;20807;-55
2022/11/16 02:50:51;;;;;;;3.13;2.60;;;;;;;;;;4954006;28;20431;-56
2022/11/16 02:53:18;;;;;;;3.80;2.60;;;;;;;;;;4967107;28;20445;-56
2022/11/16 02:55:44;;;;;;;4.73;2.70;;;;;;;;;;4940287;28;20491;-56
2022/11/16 02:58:10;;;;;;;2.63;2.40;;;;;;;;;;4969429;28;21119;-56
2022/11/16 03:00:36;;;;;;;3.47;2.23;;;;;;;;;;4960949;28;20429;-56
2022/11/16 03:03:11;;;;;;;2.00;1.80;;;;;;;;;;4958079;28;20517;-56
2022/11/16 03:05:38;;;;;;;4.23;2.73;;;;;;;;;;4941811;28;20453;-56
2022/11/16 03:08:07;;;;;;;2.87;2.17;;;;;;;;;;4952284;28;20434;-56
2022/11/16 03:13:18;;;;;;;3.20;2.13;;;;;;;;;;4947222;28;20437;-56
2022/11/16 03:15:44;;;;;;;2.33;2.10;;;;;;;;;;4921298;28;20445;-56
2022/11/16 03:18:10;;;;;;;8.50;2.63;;;;;;;;;;4950564;28;20439;-56
2022/11/16 03:20:36;;;;;;;5.10;2.37;;;;;;;;;;4919207;28;20205;-56
2022/11/16 03:23:07;;;;;;;3.97;3.20;;;;;;;;;;4947928;28;20598;-56
2022/11/16 03:25:38;;;;;;;8.73;2.70;;;;;;;;;;4920778;28;20570;-56
2022/11/16 03:28:07;;;;;;;3.40;2.23;;;;;;;;;;4950589;28;20441;-56
2022/11/16 03:30:35;;;;;;;3.03;2.03;;;;;;;;;;4938805;28;20450;-56
2022/11/16 03:33:03;;;;;;;4.00;2.60;;;;;;;;;;4952516;28;20916;-57
2022/11/16 03:35:34;;;;;;;3.83;2.20;;;;;;;;;;4937083;28;20520;-56
2022/11/16 03:38:00;;;;;;;4.93;3.07;;;;;;;;;;4949489;28;20486;-57
2022/11/16 03:40:27;;;;;;;3.93;2.90;;;;;;;;;;4959626;28;20430;-57
2022/11/16 03:42:53;;;;;;;2.20;1.63;;;;;;;;;;4967411;28;20478;-55
2022/11/16 03:45:19;;;;;;;4.57;2.47;;;;;;;;;;4909152;28;20447;-55
2022/11/16 03:47:45;;;;;;;2.80;1.77;;;;;;;;;;4953327;28;20504;-57
2022/11/16 03:50:11;;;;;;;2.27;1.83;;;;;;;;;;4927939;28;22029;-57
2022/11/16 03:52:37;;;;;;;6.30;2.73;;;;;;;;;;4969549;28;20554;-56
2022/11/16 03:55:03;;;;;;;7.80;4.10;;;;;;;;;;4944768;28;20426;-56
2022/11/16 03:57:29;;;;;;;6.83;3.00;;;;;;;;;;4972195;28;20459;-56
2022/11/16 03:59:55;;;;;;;8.53;1.90;;;;;;;;;;4968651;28;21292;-57
2022/11/16 04:02:21;;;;;;;1.80;1.30;;;;;;;;;;4961913;28;20745;-56
2022/11/16 04:24:29;;;;;;;4.63;3.23;;;;;;;;;;4956027;28;20573;-56
2022/11/16 04:29:43;;;;;;;13.40;6.27;;;;;;;;;;4952135;28;20447;-56
2022/11/16 04:37:47;;;;;;;7.17;4.27;;;;;;;;;;4958391;28;20481;-54
2022/11/16 04:40:14;;;;;;;6.73;3.60;;;;;;;;;;4954827;28;20425;-55
2022/11/16 04:42:40;;;;;;;5.27;3.07;;;;;;;;;;4965239;28;20485;-55
2022/11/16 04:47:51;;;;;;;3.47;3.17;;;;;;;;;;4960739;28;20532;-56
2022/11/16 04:50:17;;;;;;;5.10;3.97;;;;;;;;;;4920395;28;20441;-56
2022/11/16 04:52:43;;;;;;;4.10;2.57;;;;;;;;;;4959332;28;20434;-55
2022/11/16 04:55:09;;;;;;;3.67;2.77;;;;;;;;;;4951101;28;20441;-56
2022/11/16 04:57:35;;;;;;;3.63;2.93;;;;;;;;;;4941675;28;20876;-55
2022/11/16 05:00:01;;;;;;;3.93;3.47;;;;;;;;;;4942063;28;20457;-56
2022/11/16 05:02:27;;;;;;;4.00;3.00;;;;;;;;;;4955560;28;20480;-56
2022/11/16 05:04:53;;;;;;;2.63;2.30;;;;;;;;;;4961786;28;21286;-57
2022/11/16 05:07:19;;;;;;;3.70;2.43;;;;;;;;;;4961758;28;20446;-56
2022/11/16 05:09:46;;;;;;;3.13;2.70;;;;;;;;;;4949558;28;20826;-56
2022/11/16 05:12:16;;;;;;;3.90;2.50;;;;;;;;;;4947482;28;20599;-56
2022/11/16 05:14:42;;;;;;;3.33;2.90;;;;;;;;;;4957288;28;20687;-56
2022/11/16 05:17:08;;;;;;;3.40;3.10;;;;;;;;;;4957647;28;20966;-55
2022/11/16 05:22:19;;;;;;;6.13;3.17;;;;;;;;;;4964187;28;20470;-56
2022/11/16 05:24:45;;;;;;;5.37;3.43;;;;;;;;;;4944454;28;20938;-57
2022/11/16 05:27:11;;;;;;;4.00;2.57;;;;;;;;;;4938426;28;20445;-56
2022/11/16 05:29:37;;;;;;;3.10;2.70;;;;;;;;;;4964110;28;20588;-54
2022/11/16 05:32:03;;;;;;;3.33;2.50;;;;;;;;;;4937460;28;20443;-57
2022/11/16 05:34:29;;;;;;;4.70;3.40;;;;;;;;;;4952957;28;20985;-56
2022/11/16 05:36:56;;;;;;;4.60;3.20;;;;;;;;;;4921628;28;20438;-54
2022/11/16 05:39:22;;;;;;;3.43;3.13;;;;;;;;;;4955760;28;20495;-56
2022/11/16 05:41:47;;;;;;;7.17;2.63;;;;;;;;;;4931862;28;20584;-56
2022/11/16 05:44:14;;;;;;;4.73;2.97;;;;;;;;;;4962565;28;20493;-56
2022/11/16 05:46:40;;;;;;;5.57;2.97;;;;;;;;;;4932948;28;20556;-55
2022/11/16 05:49:06;;;;;;;4.37;2.97;;;;;;;;;;4963801;28;20473;-57
2022/11/16 05:51:33;;;;;;;3.17;2.73;;;;;;;;;;4939652;28;20453;-56
2022/11/16 05:53:59;;;;;;;3.83;3.10;;;;;;;;;;4962678;28;20558;-56
2022/11/16 05:56:25;;;;;;;4.50;3.47;;;;;;;;;;4921021;28;21127;-55
2022/11/16 05:58:51;;;;;;;4.27;3.13;;;;;;;;;;4962127;28;20531;-56
2022/11/16 06:01:17;;;;;;;3.80;3.17;;;;;;;;;;4934025;28;22575;-56
2022/11/16 06:03:43;;;;;;;2.97;2.67;;;;;;;;;;4959061;28;20500;-55
2022/11/16 06:06:09;;;;;;;3.00;2.67;;;;;;;;;;4943205;28;20666;-56
2022/11/16 06:08:35;;;;;;;4.83;3.10;;;;;;;;;;4956295;28;20469;-57
2022/11/16 06:11:04;;;;;;;5.50;3.30;;;;;;;;;;4940658;28;20533;-56
2022/11/16 06:13:31;;;;;;;4.63;3.23;;;;;;;;;;4957110;28;20434;-56
2022/11/16 06:15:57;;;;;;;3.80;3.43;;;;;;;;;;4925101;28;20462;-56
2022/11/16 06:18:23;;;;;;;5.30;3.93;;;;;;;;;;4957917;28;20449;-56
2022/11/16 06:20:49;;;;;;;3.50;2.87;;;;;;;;;;4954570;28;20445;-57
2022/11/16 06:23:15;;;;;;;3.70;3.10;;;;;;;;;;4959491;28;20476;-57
2022/11/16 06:25:41;;;;;;;4.20;3.00;;;;;;;;;;4934524;28;21335;-57
2022/11/16 06:28:07;;;;;;;4.07;2.60;;;;;;;;;;4948172;28;20947;-59
2022/11/16 06:30:33;;;;;;;3.20;2.80;;;;;;;;;;4961752;28;20489;-57
2022/11/16 06:32:59;;;;;;;4.60;4.00;;;;;;;;;;4963055;28;20456;-55
2022/11/16 06:35:24;;;;;;;4.50;3.97;;;;;;;;;;4951454;28;20438;-56
2022/11/16 06:37:50;;;;;;;3.93;3.53;;;;;;;;;;4939742;28;20560;-55
2022/11/16 06:40:16;;;;;;;5.37;3.80;;;;;;;;;;4963797;28;20442;-56
2022/11/16 06:42:42;;;;;;;4.53;2.77;;;;;;;;;;4960075;28;20500;-55
2022/11/16 06:45:09;;;;;;;4.37;3.17;;;;;;;;;;4947401;28;20433;-55
2022/11/16 06:47:34;;;;;;;3.70;2.80;;;;;;;;;;4931835;28;20450;-57
2022/11/16 06:50:01;;;;;;;4.10;3.20;;;;;;;;;;4960925;28;20512;-56
2022/11/16 06:52:27;;;;;;;5.70;3.20;;;;;;;;;;4941739;28;20453;-56
2022/11/16 06:54:53;;;;;;;4.30;3.40;;;;;;;;;;4925326;28;20945;-62
2022/11/16 06:57:19;;;;;;;5.67;3.67;;;;;;;;;;4921774;28;20538;-56
2022/11/16 06:59:45;;;;;;;3.63;3.33;;;;;;;;;;4957727;28;20437;-54
2022/11/16 07:02:10;;;;;;;3.40;2.70;;;;;;;;;;4956002;28;20437;-56
2022/11/16 07:04:36;;;;;;;2.80;2.33;;;;;;;;;;4959800;28;20982;-56
2022/11/16 07:07:02;;;;;;;4.40;2.50;;;;;;;;;;4932462;28;20481;-56
2022/11/16 07:09:28;;;;;;;4.80;2.40;;;;;;;;;;4961737;28;20445;-58
2022/11/16 07:11:54;;;;;;;3.37;2.00;;;;;;;;;;4962039;28;20437;-56
2022/11/16 07:14:20;;;;;;;3.43;2.50;;;;;;;;;;4970089;28;20442;-55
2022/11/16 07:16:46;;;;;;;2.30;2.10;;;;;;;;;;4940623;28;20458;-57
2022/11/16 07:19:12;;;;;;;2.60;2.30;;;;;;;;;;4966222;28;20454;-56
2022/11/16 07:21:38;;;;;;;2.30;1.57;;;;;;;;;;4958007;28;20627;-55
2022/11/16 07:24:04;;;;;;;2.20;2.00;;;;;;;;;;4966563;28;20874;-57
2022/11/16 07:26:32;;;;;;;2.07;1.70;;;;;;;;;;4921464;28;20540;-56
2022/11/16 07:28:58;;;;;;;2.47;1.50;;;;;;;;;;4966736;28;20461;-55
2022/11/16 07:31:24;;;;;;;1.67;1.27;;;;;;;;;;4958216;28;21098;-56
2022/11/16 07:33:51;;;;;;;1.77;1.20;;;;;;;;;;4971284;28;20503;-56
2022/11/16 07:36:17;;;;;;;1.80;1.30;;;;;;;;;;4954208;28;20469;-56
2022/11/16 07:38:43;;;;;;;2.00;1.20;;;;;;;;;;4962175;28;20879;-57
2022/11/16 07:41:10;;;;;;;2.87;1.57;;;;;;;;;;4952552;28;20533;-57
2022/11/16 07:43:36;;;;;;;1.60;1.00;;;;;;;;;;4948895;28;20493;-56
2022/11/16 07:46:05;;;;;;;2.57;1.50;;;;;;;;;;4933849;28;20444;-56
2022/11/16 07:48:31;;;;;;;1.70;1.10;;;;;;;;;;4966348;28;20418;-57
2022/11/16 07:51:01;;;;;;;1.60;1.37;;;;;;;;;;4923604;28;20473;-56
2022/11/16 07:53:27;;;;;;;3.00;1.20;;;;;;;;;;4960778;28;20433;-57
2022/11/16 07:55:53;;;;;;;4.50;1.10;;;;;;;;;;4959605;28;21139;-56
2022/11/16 07:58:19;;;;;;;1.93;1.00;;;;;;;;;;4960581;28;20430;-58
2022/11/16 08:00:45;;;;;;;1.70;1.00;;;;;;;;;;4921838;28;20444;-56
2022/11/16 08:03:11;;;;;;;1.73;1.20;;;;;;;;;;4966599;28;20863;-56
2022/11/16 08:05:37;;;;;;;1.77;1.10;;;;;;;;;;4958016;28;20485;-56
2022/11/16 08:08:03;;;;;;;1.30;0.83;;;;;;;;;;4964654;28;20446;-57
2022/11/16 08:10:31;;;;;;;2.43;1.23;;;;;;;;;;4956351;28;20439;-57
2022/11/16 08:12:57;;;;;;;2.80;1.20;;;;;;;;;;4969580;28;20441;-56
2022/11/16 08:15:23;;;;;;;2.83;1.40;;;;;;;;;;4940965;28;20476;-56
2022/11/16 08:17:49;;;;;;;1.67;0.70;;;;;;;;;;4965395;28;20453;-57
2022/11/16 08:20:15;;;;;;;1.50;0.93;;;;;;;;;;4937822;28;20446;-56
2022/11/16 08:22:41;;;;;;;2.17;0.97;;;;;;;;;;4965773;28;20473;-56
2022/11/16 08:25:07;;;;;;;1.13;0.90;;;;;;;;;;4959166;28;20432;-57
2022/11/16 08:27:33;;;;;;;1.30;0.80;;;;;;;;;;4961482;28;20533;-57
2022/11/16 08:30:02;;;;;;;3.07;1.17;;;;;;;;;;4953311;28;21180;-56
2022/11/16 08:32:28;;;;;;;1.63;1.10;;;;;;;;;;4943756;28;20433;-56
2022/11/16 08:34:54;;;;;;;2.97;0.87;;;;;;;;;;4933613;28;20449;-57
2022/11/16 08:37:21;;;;;;;2.60;0.93;;;;;;;;;;4943069;28;20442;-55
2022/11/16 08:39:46;;;;;;;1.30;0.73;;;;;;;;;;4963376;28;20523;-57
2022/11/16 08:42:12;;;;;;;2.13;1.10;;;;;;;;;;4937995;28;20449;-56
2022/11/16 08:44:38;;;;;;;2.23;0.97;;;;;;;;;;4961425;28;20441;-57
2022/11/16 08:47:04;;;;;;;2.07;0.90;;;;;;;;;;4936001;28;20440;-57
2022/11/16 08:49:30;;;;;;;1.93;0.90;;;;;;;;;;4962590;28;21174;-57
2022/11/16 08:51:56;;;;;;;2.70;1.30;;;;;;;;;;4940058;28;20471;-57
2022/11/16 08:54:22;;;;;;;9.10;1.50;;;;;;;;;;4973253;28;20454;-57
2022/11/16 08:56:48;;;;;;;2.23;1.37;;;;;;;;;;4961654;28;20437;-56
2022/11/16 08:59:14;;;;;;;1.50;1.10;;;;;;;;;;4959431;28;20543;-56
2022/11/16 09:01:40;;;;;;;2.00;1.00;;;;;;;;;;4943368;28;20437;-56
2022/11/16 09:04:06;;;;;;;2.10;1.30;;;;;;;;;;4969268;28;20511;-56
2022/11/16 09:06:32;;;;;;;9.60;1.80;;;;;;;;;;4926529;28;20469;-54
2022/11/16 09:08:58;;;;;;;2.00;1.00;;;;;;;;;;4969210;28;20454;-61
2022/11/16 09:11:24;;;;;;;2.80;1.00;;;;;;;;;;4963083;28;20533;-59
2022/11/16 09:13:50;;;;;;;2.03;1.30;;;;;;;;;;4963438;28;20452;-56
2022/11/16 09:16:17;;;;;;;3.50;1.90;;;;;;;;;;4936312;28;20565;-56
2022/11/16 09:18:44;;;;;;;3.80;1.30;;;;;;;;;;4965936;28;20499;-56
2022/11/16 09:21:10;;;;;;;4.77;2.50;;;;;;;;;;4945866;28;20464;-56
2022/11/16 09:23:36;;;;;;;2.77;1.10;;;;;;;;;;4963844;28;20486;-56
2022/11/16 09:26:02;;;;;;;5.20;1.17;;;;;;;;;;4942735;28;20465;-55
2022/11/16 09:28:28;;;;;;;1.30;0.93;;;;;;;;;;4965154;28;20482;-56
2022/11/16 09:30:57;;;;;;;2.30;0.97;;;;;;;;;;4963362;28;20978;-56
2022/11/16 09:33:23;;;;;;;1.93;1.40;;;;;;;;;;4962645;28;20450;-56
2022/11/16 09:35:49;;;;;;;2.10;1.00;;;;;;;;;;4934055;28;20511;-61
2022/11/16 09:38:15;;;;;;;1.20;0.90;;;;;;;;;;4943005;28;20453;-55
2022/11/16 09:40:41;;;;;;;1.60;1.13;;;;;;;;;;4953543;28;20496;-56
2022/11/16 09:43:19;;;;;;;1.73;0.83;;;;;;;;;;4940865;28;20477;-56
2022/11/16 09:45:47;;;;;;;5.00;1.23;;;;;;;;;;4960322;28;20463;-56
2022/11/16 09:48:14;;;;;;;2.40;0.90;;;;;;;;;;4949846;28;20474;-54
2022/11/16 09:50:40;;;;;;;1.40;0.80;;;;;;;;;;4919322;28;20451;-56
2022/11/16 09:53:11;;;;;;;2.50;0.90;;;;;;;;;;4954638;28;20447;-56
2022/11/16 09:55:39;;;;;;;2.77;1.10;;;;;;;;;;4938622;28;20446;-56
2022/11/16 09:58:07;;;;;;;4.23;1.43;;;;;;;;;;4953399;28;20529;-56
2022/11/16 10:00:33;;;;;;;5.77;1.20;;;;;;;;;;4941572;28;21309;-56
2022/11/16 10:03:01;;;;;;;2.27;1.63;;;;;;;;;;4933313;28;20474;-56
2022/11/16 10:05:39;;;;;;;2.70;1.50;;;;;;;;;;4961329;28;20449;-57
2022/11/16 10:08:24;;;;;;;2.30;1.53;;;;;;;;;;4964518;28;20449;-57
2022/11/16 10:10:53;;;;;;;2.73;1.73;;;;;;;;;;4927743;28;21536;-56
2022/11/16 10:13:28;;;;;;;2.50;2.00;;;;;;;;;;4937232;28;20489;-56
2022/11/16 10:16:02;;;;;;;4.83;1.60;;;;;;;;;;4963766;28;20457;-56
2022/11/16 10:18:34;;;;;;;5.50;1.73;;;;;;;;;;4946748;28;20451;-55
2022/11/16 10:21:03;;;;;;;4.00;1.40;;;;;;;;;;4940035;28;20994;-56
2022/11/16 10:23:29;;;;;;;2.73;1.10;;;;;;;;;;4968309;28;20520;-56
2022/11/16 10:26:05;;;;;;;2.07;1.40;;;;;;;;;;4963545;28;20429;-56
2022/11/16 10:28:37;;;;;;;2.30;1.40;;;;;;;;;;4945740;28;20452;-57
2022/11/16 10:31:18;;;;;;;2.20;1.70;;;;;;;;;;4939305;28;20434;-54
2022/11/16 10:33:44;;;;;;;1.97;0.90;;;;;;;;;;4948677;28;20501;-54
2022/11/16 10:36:12;;;;;;;1.47;0.77;;;;;;;;;;4946367;28;20469;-56
2022/11/16 10:38:38;;;;;;;1.87;0.90;;;;;;;;;;4947339;28;20449;-56
2022/11/16 10:41:12;;;;;;;1.50;1.40;;;;;;;;;;4924814;28;21900;-56
2022/11/16 10:43:39;;;;;;;4.17;1.60;;;;;;;;;;4941639;28;20512;-56
2022/11/16 10:46:14;;;;;;;2.10;1.50;;;;;;;;;;4954860;28;20441;-56
2022/11/16 10:48:49;;;;;;;1.30;1.10;;;;;;;;;;4946387;28;20661;-56
2022/11/16 10:51:15;;;;;;;3.20;1.20;;;;;;;;;;4958547;28;20457;-56
2022/11/16 10:53:42;;;;;;;1.50;0.80;;;;;;;;;;4948179;28;20448;-56
2022/11/16 10:56:28;;;;;;;1.50;0.90;;;;;;;;;;4962487;28;20497;-55
2022/11/16 10:58:55;;;;;;;3.43;0.80;;;;;;;;;;4961587;28;20611;-56
2022/11/16 11:01:48;;;;;;;2.30;0.87;;;;;;;;;;4955687;28;20430;-54
2022/11/16 11:04:31;;;;;;;3.33;1.20;;;;;;;;;;4951099;28;20485;-56
2022/11/16 11:07:01;;;;;;;1.57;0.80;;;;;;;;;;4963434;28;20803;-55
2022/11/16 11:09:36;;;;;;;1.30;0.73;;;;;;;;;;4964828;28;20437;-56
2022/11/16 11:15:14;;;;;;;2.67;1.00;;;;;;;;;;4959229;28;21375;-56
2022/11/16 11:17:41;;;;;;;1.40;0.70;;;;;;;;;;4923197;28;20457;-56
2022/11/16 11:20:11;;;;;;;3.53;1.10;;;;;;;;;;4962822;28;20434;-57
2022/11/16 11:22:41;;;;;;;1.77;1.00;;;;;;;;;;4923745;28;20481;-54
2022/11/16 11:25:14;;;;;;;2.47;0.90;;;;;;;;;;4946423;28;20490;-56
2022/11/16 11:27:40;;;;;;;1.40;0.67;;;;;;;;;;4940029;28;20500;-56
2022/11/16 11:30:10;;;;;;;3.73;2.17;;;;;;;;;;4946434;28;20470;-56
2022/11/16 11:32:38;;;;;;;3.37;1.33;;;;;;;;;;4925475;28;20601;-55
2022/11/16 11:35:05;;;;;;;2.70;1.50;;;;;;;;;;4946921;28;20442;-57
2022/11/16 11:37:34;;;;;;;1.70;1.00;;;;;;;;;;4932883;28;20434;-56
2022/11/16 11:40:15;;;;;;;1.93;1.33;;;;;;;;;;4953148;28;20763;-57
2022/11/16 11:42:42;;;;;;;2.13;1.20;;;;;;;;;;4946107;28;20509;-56
2022/11/16 11:45:08;;;;;;;3.43;1.27;;;;;;;;;;4948746;28;20464;-56
2022/11/16 11:47:36;;;;;;;1.93;0.70;;;;;;;;;;4950807;28;20512;-58
2022/11/16 11:50:20;;;;;;;1.50;0.80;;;;;;;;;;4963604;28;20522;-57
2022/11/16 11:52:55;;;;;;;2.47;0.70;;;;;;;;;;4920775;28;20442;-56
2022/11/16 11:55:21;;;;;;;1.40;0.83;;;;;;;;;;4966515;28;20439;-55
2022/11/16 11:57:48;;;;;;;1.73;0.83;;;;;;;;;;4962209;28;21076;-56
2022/11/16 12:00:16;;;;;;;5.20;0.93;;;;;;;;;;4958332;28;20471;-57
2022/11/16 12:02:45;;;;;;;1.27;0.77;;;;;;;;;;4933827;28;20469;-57
2022/11/16 12:05:16;;;;;;;4.50;0.90;;;;;;;;;;4956414;28;20446;-56
2022/11/16 12:07:48;;;;;;;1.80;0.80;;;;;;;;;;4919822;28;20506;-58
2022/11/16 12:10:23;;;;;;;2.20;0.80;;;;;;;;;;4957973;28;20795;-56
2022/11/16 12:12:49;;;;;;;1.40;0.80;;;;;;;;;;4935465;28;20437;-57
2022/11/16 12:15:24;;;;;;;1.73;1.00;;;;;;;;;;4961271;28;20449;-58
2022/11/16 12:17:50;;;;;;;2.83;1.00;;;;;;;;;;4935873;28;20519;-56
2022/11/16 12:20:20;;;;;;;1.83;1.00;;;;;;;;;;4957663;28;21129;-60
2022/11/16 12:22:49;;;;;;;1.57;0.80;;;;;;;;;;4937144;28;20477;-58
2022/11/16 12:25:15;;;;;;;3.10;0.90;;;;;;;;;;4964447;28;20507;-56
2022/11/16 12:27:44;;;;;;;1.90;0.70;;;;;;;;;;4916663;28;20975;-56
2022/11/16 12:30:14;;;;;;;1.50;0.80;;;;;;;;;;4959312;28;20270;-57
2022/11/16 12:32:51;;;;;;;1.50;0.90;;;;;;;;;;4955157;28;20471;-60
2022/11/16 12:35:26;;;;;;;4.23;0.77;;;;;;;;;;4960708;28;20540;-55
2022/11/16 12:38:01;;;;;;;1.40;0.70;;;;;;;;;;4925353;28;20453;-56
2022/11/16 12:40:33;;;;;;;1.50;0.77;;;;;;;;;;4956925;28;20429;-56
2022/11/16 12:43:09;;;;;;;1.40;0.80;;;;;;;;;;4922355;28;20490;-57
2022/11/16 12:45:42;;;;;;;1.40;0.60;;;;;;;;;;4956463;28;20433;-56
2022/11/16 12:48:12;;;;;;;2.50;0.80;;;;;;;;;;4939941;28;20446;-57
2022/11/16 12:50:56;;;;;;;1.40;0.67;;;;;;;;;;4936473;28;20454;-57
2022/11/16 12:53:31;;;;;;;2.13;0.80;;;;;;;;;;4958960;28;21084;-55
2022/11/16 12:55:58;;;;;;;2.33;0.70;;;;;;;;;;4955648;28;20444;-56
2022/11/16 12:58:33;;;;;;;2.67;0.87;;;;;;;;;;4958297;28;20943;-57
2022/11/16 13:01:10;;;;;;;2.63;0.50;;;;;;;;;;4936848;28;20429;-57
2022/11/16 13:03:38;;;;;;;1.87;0.70;;;;;;;;;;4936802;28;20616;-57
2022/11/16 13:06:06;;;;;;;1.47;0.60;;;;;;;;;;4957362;28;20808;-56
2022/11/16 13:08:38;;;;;;;5.50;0.70;;;;;;;;;;4925974;28;20437;-56
2022/11/16 13:11:07;;;;;;;4.13;0.80;;;;;;;;;;4955587;28;20966;-56
2022/11/16 13:13:33;;;;;;;3.33;0.87;;;;;;;;;;4942768;28;20800;-57
2022/11/16 13:15:59;;;;;;;2.90;0.70;;;;;;;;;;4961908;28;20715;-56
2022/11/16 13:18:25;;;;;;;2.03;0.70;;;;;;;;;;4943216;28;20465;-55
2022/11/16 13:21:10;;;;;;;1.93;0.60;;;;;;;;;;4945978;28;20533;-55
2022/11/16 13:23:54;;;;;;;3.47;0.90;;;;;;;;;;4952066;28;20513;-57
2022/11/16 13:26:35;;;;;;;1.23;0.67;;;;;;;;;;4957165;28;20426;-57
2022/11/16 13:29:20;;;;;;;2.37;0.80;;;;;;;;;;4960991;28;20449;-57
2022/11/16 13:31:49;;;;;;;1.30;0.57;;;;;;;;;;4957750;28;20443;-57
2022/11/16 13:34:17;;;;;;;1.33;0.67;;;;;;;;;;4960181;28;20436;-56
2022/11/16 13:36:44;;;;;;;1.17;0.67;;;;;;;;;;4905198;28;21134;-57
2022/11/16 13:39:14;;;;;;;1.30;0.80;;;;;;;;;;4967337;28;22221;-56
2022/11/16 13:41:40;;;;;;;1.40;0.60;;;;;;;;;;4938897;28;20462;-56
2022/11/16 13:44:19;;;;;;;2.07;0.97;;;;;;;;;;4969870;28;20560;-56
2022/11/16 13:46:46;;;;;;;1.63;0.77;;;;;;;;;;4946329;28;21025;-56
2022/11/16 13:49:39;;;;;;;3.93;0.80;;;;;;;;;;4963373;28;20868;-57
2022/11/16 13:52:06;;;;;;;2.20;0.80;;;;;;;;;;4960778;28;20438;-60
2022/11/16 13:54:36;;;;;;;1.60;0.70;;;;;;;;;;4947540;28;20469;-55
2022/11/16 13:57:03;;;;;;;3.47;0.83;;;;;;;;;;4965132;28;20486;-56
2022/11/16 13:59:30;;;;;;;2.13;0.80;;;;;;;;;;4951158;28;20438;-56
2022/11/16 14:01:56;;;;;;;1.97;1.10;;;;;;;;;;4937887;28;20658;-56
2022/11/16 14:04:41;;;;;;;1.73;1.10;;;;;;;;;;4959200;28;20949;-57
2022/11/16 14:07:26;;;;;;;2.70;1.67;;;;;;;;;;4917017;28;20445;-57
2022/11/16 14:09:52;;;;;;;2.50;1.73;;;;;;;;;;4967951;28;20490;-57
2022/11/16 14:12:37;;;;;;;3.17;1.20;;;;;;;;;;4936809;28;20511;-56
2022/11/16 14:15:02;;;;;;;1.90;1.30;;;;;;;;;;4967238;28;20485;-56
2022/11/16 14:17:47;;;;;;;3.30;1.20;;;;;;;;;;4968509;28;20441;-56
2022/11/16 14:20:13;;;;;;;2.70;1.23;;;;;;;;;;4963147;28;20445;-57
2022/11/16 14:22:50;;;;;;;4.47;1.93;;;;;;;;;;4942079;28;20469;-57
2022/11/16 14:25:23;;;;;;;2.07;1.23;;;;;;;;;;4947874;28;20481;-56
2022/11/16 14:27:55;;;;;;;2.57;0.93;;;;;;;;;;4952852;28;20508;-57
2022/11/16 14:30:25;;;;;;;2.53;1.37;;;;;;;;;;4964367;28;20548;-58
2022/11/16 14:32:54;;;;;;;2.10;0.90;;;;;;;;;;4924252;28;21014;-55
2022/11/16 14:35:34;;;;;;;4.13;1.37;;;;;;;;;;4932248;28;20915;-57
2022/11/16 14:38:03;;;;;;;2.67;0.93;;;;;;;;;;4924677;28;20442;-57
2022/11/16 14:40:30;;;;;;;4.43;1.00;;;;;;;;;;4951740;28;20809;-56
2022/11/16 14:43:05;;;;;;;3.90;1.57;;;;;;;;;;4945972;28;20478;-60
2022/11/16 14:45:31;;;;;;;6.40;1.63;;;;;;;;;;4964359;28;20516;-59
2022/11/16 14:48:13;;;;;;;3.43;1.70;;;;;;;;;;4924401;28;20499;-56
2022/11/16 14:50:39;;;;;;;2.63;1.40;;;;;;;;;;4964522;28;20464;-56
2022/11/16 14:53:05;;;;;;;4.73;1.23;;;;;;;;;;4946766;28;20536;-55
2022/11/16 14:55:31;;;;;;;4.33;1.57;;;;;;;;;;4952933;28;20445;-57
2022/11/16 14:58:15;;;;;;;5.33;1.67;;;;;;;;;;4961791;28;20435;-58
2022/11/16 15:00:40;;;;;;;2.97;1.50;;;;;;;;;;4946580;28;20446;-59
2022/11/16 15:03:06;;;;;;;7.70;1.87;;;;;;;;;;4939442;28;20486;-56
2022/11/16 15:05:33;;;;;;;2.93;1.50;;;;;;;;;;4946947;28;20438;-56
2022/11/16 15:07:59;;;;;;;7.73;2.93;;;;;;;;;;4945616;28;20447;-55
2022/11/16 15:10:26;;;;;;;4.47;2.40;;;;;;;;;;4968497;28;20421;-55
2022/11/16 15:12:52;;;;;;;5.00;1.80;;;;;;;;;;4922294;28;20987;-56
2022/11/16 15:15:20;;;;;;;3.43;1.80;;;;;;;;;;4967703;28;20556;-55
2022/11/16 15:17:48;;;;;;;4.70;1.80;;;;;;;;;;4940827;28;20488;-59
2022/11/16 15:20:15;;;;;;;2.17;1.63;;;;;;;;;;4949510;28;20442;-57
2022/11/16 15:22:45;;;;;;;6.23;2.03;;;;;;;;;;4937693;28;20862;-56
2022/11/16 15:25:24;;;;;;;4.60;2.37;;;;;;;;;;4969244;28;20540;-56
2022/11/16 15:27:50;;;;;;;3.63;1.70;;;;;;;;;;4961574;28;20456;-56
2022/11/16 15:30:18;;;;;;;5.23;2.20;;;;;;;;;;4965638;28;20429;-57
2022/11/16 15:32:44;;;;;;;3.77;1.70;;;;;;;;;;4960565;28;20915;-57
2022/11/16 15:35:23;;;;;;;4.23;1.80;;;;;;;;;;4959863;28;20449;-57